Home > Products > Valid Products > TAF

000
FTUS42 KILM 161200 AAA
TAFFLO
TAF AMD
KFLO 161228Z 1612/1712 00000KT P6SM VCSH OVC012
      TEMPO 1612/1614 BKN024
     FM161400 36005KT P6SM BKN015 BKN100
     FM162100 16005KT P6SM SCT030 BKN250
     FM170800 03004KT 4SM BR BKN010=



000
FTUS42 KILM 161200 CCA
TAFFLO
TAF COR
KFLO 161211Z 1612/1712 00000KT P6SM VCSH OVC004
      TEMPO 1612/1614 BKN012
     FM161400 36005KT P6SM BKN015 BKN100
     FM162100 16005KT P6SM SCT030 BKN250
     FM170800 03004KT 4SM BR BKN010=



000
FTUS42 KILM 161100 CCA
TAFLBT
TAF COR
KLBT 161148Z 1612/1712 00000KT 2SM BR VCSH OVC006
     FM161430 35003KT P6SM BKN015 BKN100
     FM162100 14004KT P6SM SCT030 BKN250
     FM170700 04004KT 4SM BR BKN010=



000
FTUS42 KILM 161100 CCA
TAFILM
TAF COR
KILM 161141Z 1612/1712 00000KT P6SM VCSH FEW006 BKN020
     FM161500 04004KT P6SM BKN020 BKN100
     FM161800 14006KT P6SM VCSH SCT035 BKN250
     FM170800 03004KT 4SM BR BKN010=



000
FTUS42 KILM 161100
TAFILM
TAF
KILM 161120Z 1612/1712 00000KT P6SM VCSH FEW003 SCT023 BKN080
     FM161500 04004KT P6SM BKN020 BKN100
     FM161800 14006KT P6SM VCSH SCT035 BKN250
     FM170800 03004KT 4SM BR BKN010=



000
FTUS42 KILM 161100
TAFMYR
TAF
KMYR 161120Z 1612/1712 00000KT P6SM VCSH BKN035 OVC045
     FM161500 36006KT P6SM BKN020 BKN100
     FM161800 15008KT P6SM VCSH SCT035 BKN250
     FM170800 03004KT 4SM BR BKN010=



000
FTUS42 KILM 161100
TAFCRE
TAF
KCRE 161120Z 1612/1712 00000KT P6SM VCSH OVC040
     FM161500 02005KT P6SM BKN020 BKN100
     FM161800 15006KT P6SM VCSH SCT035 BKN250
     FM170800 02004KT 4SM BR BKN010=



000
FTUS42 KILM 161100
TAFLBT
TAF
KLBT 161120Z 1612/1712 00000KT P6SM VCSH OVC008
     FM161430 35003KT P6SM BKN015 BKN100
     FM162100 14004KT P6SM SCT030 BKN250
     FM170700 04004KT 4SM BR BKN010=



000
FTUS42 KILM 161100
TAFFLO
TAF
KFLO 161120Z 1612/1712 00000KT P6SM VCSH OVC004
     FM161500 36005KT P6SM BKN015 BKN100
     FM162100 16005KT P6SM SCT030 BKN250
     FM170800 03004KT 4SM BR BKN010=



000
FTUS42 KILM 161000 AAB
TAFMYR
TAF AMD
KMYR 161001Z 1610/1706 00000KT P6SM VCSH BKN035 BKN045 OVC050
     FM161500 36006KT P6SM BKN020 BKN100
     FM161800 15008KT P6SM SCT030 BKN250
      AMD LTD TO CLD VIS AND WIND TIL 161100=



000
FTUS42 KILM 161000 AAB
TAFCRE
TAF AMD
KCRE 161000Z 1610/1706 00000KT P6SM VCSH OVC040
     FM161500 02005KT P6SM BKN020 BKN100
     FM161800 15006KT P6SM SCT030 BKN250=



000
FTUS42 KILM 161000 AAC
TAFILM
TAF AMD
KILM 161000Z 1610/1706 00000KT P6SM VCSH BKN035 BKN060 OVC080
     FM161500 04004KT P6SM BKN020 BKN100
     FM161800 14006KT P6SM SCT030 BKN250=



000
FTUS42 KILM 160900 AAB
TAFILM
TAF AMD
KILM 160903Z 1609/1706 00000KT P6SM VCSH BKN025 OVC045
     FM161000 00000KT 6SM BR VCSH FEW008 OVC015
     FM161500 04004KT P6SM BKN020 BKN100
     FM161800 14006KT P6SM SCT030 BKN250=



000
FTUS42 KILM 160800 AAA
TAFILM
TAF AMD
KILM 160827Z 1608/1706 00000KT P6SM VCSH SCT025 BKN035 OVC045
     FM161000 00000KT 6SM BR VCSH FEW008 OVC015
     FM161500 04004KT P6SM BKN020 BKN100
     FM161800 14006KT P6SM SCT030 BKN250=



000
FTUS42 KILM 160800 AAA
TAFFLO
TAF AMD
KFLO 160827Z 1608/1706 00000KT P6SM VCSH OVC008
     FM161000 VRB02KT 4SM BR BKN006 OVC015
     FM161500 36005KT P6SM SCT015 BKN100
     FM162100 16005KT P6SM SCT030 BKN250=



000
FTUS42 KILM 160800 AAA
TAFCRE
TAF AMD
KCRE 160826Z 1608/1706 03003KT P6SM VCSH SCT018
     FM161000 00000KT 6SM BR VCSH SCT008 OVC015
     FM161500 02005KT P6SM BKN020 BKN100
     FM161800 15006KT P6SM SCT030 BKN250=



000
FTUS42 KILM 160800 AAA
TAFMYR
TAF AMD
KMYR 160826Z 1608/1706 36003KT P6SM VCSH SCT015 OVC120
     FM161000 VRB02KT 6SM BR VCSH SCT008 OVC015
     FM161500 36006KT P6SM BKN020 BKN100
     FM161800 15008KT P6SM SCT030 BKN250
      AMD LTD TO CLD VIS AND WIND TIL 161100=



000
FTUS42 KILM 160500
TAFCRE
TAF
KCRE 160524Z 1606/1706 03003KT P6SM VCSH OVC018
     FM160800 00000KT 6SM BR VCSH SCT008 OVC015
     FM161500 02005KT P6SM BKN020 BKN100
     FM161800 15006KT P6SM SCT030 BKN250=



000
FTUS42 KILM 160500
TAFLBT
TAF
KLBT 160524Z 1606/1706 20003KT P6SM BKN022
     FM160900 VRB02KT 4SM BR BKN006 OVC015
     FM161500 35003KT P6SM SCT015 BKN100
     FM162100 14004KT P6SM SCT030 BKN250=



000
FTUS42 KILM 160500
TAFFLO
TAF
KFLO 160524Z 1606/1706 00000KT P6SM VCSH OVC014
     FM160900 VRB02KT 4SM BR BKN006 OVC015
     FM161500 36005KT P6SM SCT015 BKN100
     FM162100 16005KT P6SM SCT030 BKN250=



000
FTUS42 KILM 160500
TAFILM
TAF
KILM 160524Z 1606/1706 00000KT P6SM OVC025
     FM160900 00000KT 6SM BR VCSH FEW008 OVC015
     FM161500 04004KT P6SM BKN020 BKN100
     FM161800 14006KT P6SM SCT030 BKN250=



000
FTUS42 KILM 160500
TAFMYR
TAF
KMYR 160524Z 1606/1706 36003KT P6SM VCSH BKN015 OVC023
     FM160800 VRB02KT 6SM BR VCSH SCT008 OVC015
     FM161500 36006KT P6SM BKN020 BKN100
     FM161800 15008KT P6SM SCT030 BKN250
      AMD LTD TO CLD VIS AND WIND TIL 161100=



000
FTUS42 KILM 160200 AAA
TAFILM
TAF AMD
KILM 160252Z 1603/1624 VRB02KT P6SM SCT020 BKN040
      TEMPO 1603/1606 BKN030
     FM160800 00000KT 5SM BR VCSH FEW008 OVC015
     FM161500 36004KT P6SM BKN020 BKN100
     FM161800 14006KT P6SM SCT030 BKN250=



000
FTUS42 KILM 152300 CCA
TAFLBT
TAF COR
KLBT 152357Z 1600/1624 15003KT P6SM SCT020 OVC035
      TEMPO 1603/1606 BKN020
     FM160600 00000KT 6SM BR SCT008 OVC015
     FM160800 VRB02KT 4SM BR BKN004 OVC008
     FM161500 35004KT P6SM SCT015 BKN250=



000
FTUS42 KILM 152300 CCA
TAFFLO
TAF COR
KFLO 152357Z 1600/1624 14003KT P6SM SCT020 OVC035
      TEMPO 1603/1606 BKN020
     FM160600 00000KT 6SM BR SCT008 OVC015
     FM160800 VRB02KT 4SM BR BKN004 OVC008
     FM161500 35005KT P6SM SCT015 BKN250=



000
FTUS42 KILM 152300
TAFLBT
TAF
KLBT 152321Z 1600/1624 15003KT P6SM SCT020 OVC035
     FM160600 00000KT 6SM BR SCT008 OVC015
     FM160800 VRB02KT 4SM BR BKN004 OVC008
     FM161500 35004KT P6SM SCT015 BKN250=



000
FTUS42 KILM 152300
TAFFLO
TAF
KFLO 152321Z 1600/1624 14003KT P6SM SCT020 OVC035
     FM160600 00000KT 6SM BR SCT008 OVC015
     FM160800 VRB02KT 4SM BR BKN004 OVC008
     FM161500 35005KT P6SM SCT015 BKN250=



000
FTUS42 KILM 152300
TAFILM
TAF
KILM 152321Z 1600/1624 09003KT P6SM SCT020 BKN040
     FM160800 00000KT 5SM BR VCSH FEW008 OVC015
     FM161500 36004KT P6SM BKN020 BKN100
     FM161800 14006KT P6SM SCT030 BKN250=



000
FTUS42 KILM 152300
TAFMYR
TAF
KMYR 152321Z 1600/1624 08004KT P6SM SCT020 BKN040
     FM160700 VRB02KT 6SM BR VCSH SCT008 OVC015
     FM161500 36006KT P6SM BKN020 BKN100
     FM161800 14008KT P6SM SCT030 BKN250
      AMD LTD TO CLD VIS AND WIND 1604/1611=



000
FTUS42 KILM 152300
TAFCRE
TAF
KCRE 152321Z 1600/1624 07003KT P6SM SCT020 BKN040
     FM160700 00000KT 5SM BR VCSH SCT008 OVC015
     FM161500 01005KT P6SM BKN020 BKN100
     FM161800 15006KT P6SM SCT030 BKN250=



000
FTUS42 KILM 152000 AAA
TAFCRE
TAF AMD
KCRE 152001Z 1520/1618 07005KT P6SM SCT018 OVC025
      TEMPO 1520/1521 BKN018
     FM152300 13006KT P6SM VCSH SCT025 BKN100
     FM160200 00000KT 6SM BR SCT007 BKN015
     FM160600 00000KT 5SM -RA BR BKN008
     FM161400 36003KT P6SM VCSH BKN016=



000
FTUS42 KILM 151900 AAA
TAFFLO
TAF AMD
KFLO 151945Z 1520/1618 06005KT P6SM OVC025
     FM152300 14005KT P6SM VCSH SCT025 BKN100
     FM160700 VRB03KT 4SM BR VCSH BKN004
     FM161600 32004KT P6SM SCT010 BKN250=



000
FTUS42 KILM 151900 AAA
TAFMYR
TAF AMD
KMYR 151944Z 1520/1618 08008KT P6SM BKN015 OVC025
     FM152300 12008KT P6SM VCSH SCT025 BKN100
     FM160500 31003KT 4SM -RA BR VCSH BKN007
     FM161400 32003KT P6SM BKN012=



000
FTUS42 KILM 151700
TAFMYR
TAF
KMYR 151726Z 1518/1618 01008KT P6SM OVC007
     FM152000 12008KT P6SM VCSH SCT025 BKN100
     FM160500 31003KT 4SM -RA BR VCSH BKN007
     FM161400 32003KT P6SM BKN012=



000
FTUS42 KILM 151700
TAFILM
TAF
KILM 151726Z 1518/1618 02007KT P6SM OVC025
     FM152000 10005KT P6SM SCT020 BKN040
     FM160700 00000KT 5SM BR VCSH BKN008
     FM161400 34004KT P6SM SCT010 BKN250=



000
FTUS42 KILM 151700
TAFCRE
TAF
KCRE 151726Z 1518/1618 02006KT P6SM OVC020
     FM152000 13006KT P6SM VCSH SCT025 BKN100
     FM160200 00000KT 6SM BR SCT007 BKN015
     FM160600 00000KT 5SM -RA BR BKN008
     FM161400 36003KT P6SM VCSH BKN016=



000
FTUS42 KILM 151700
TAFLBT
TAF
KLBT 151726Z 1518/1618 06005KT P6SM SCT015 OVC040
     FM152000 14005KT P6SM VCSH SCT025 BKN100
     FM160700 VRB03KT 4SM BR VCSH BKN004
     FM161600 32004KT P6SM SCT010 BKN250=



000
FTUS42 KILM 151700
TAFFLO
TAF
KFLO 151726Z 1518/1618 06005KT P6SM OVC015
     FM152000 14005KT P6SM VCSH SCT025 BKN100
     FM160700 VRB03KT 4SM BR VCSH BKN004
     FM161600 32004KT P6SM SCT010 BKN250=



000
FTUS42 KILM 151500 AAB
TAFLBT
TAF AMD
KLBT 151517Z 1515/1612 03004KT P6SM SCT016 BKN040
     FM151600 07004KT P6SM SCT020 BKN030
     FM152000 13005KT P6SM SCT025 BKN100
     FM160600 00000KT 4SM BR BKN006=



000
FTUS42 KILM 151500 AAB
TAFFLO
TAF AMD
KFLO 151515Z 1515/1612 01005KT P6SM BKN009
     FM151700 05004KT P6SM BKN020 BKN040
     FM152000 14005KT P6SM VCSH SCT025 BKN100
     FM160400 VRB03KT 4SM BR VCSH BKN014=



000
FTUS42 KILM 151500 AAC
TAFMYR
TAF AMD
KMYR 151514Z 1515/1612 01006KT 4SM BR BKN009 BKN030
     FM151700 05007KT P6SM BKN020 BKN040
     FM152000 12008KT P6SM VCSH SCT025 BKN100
     FM160500 31003KT 4SM BR VCSH BKN010=



000
FTUS42 KILM 151400 AAB
TAFMYR
TAF AMD
KMYR 151409Z 1514/1612 01006KT 2SM RA BKN009 BKN030
     FM151500 05007KT P6SM BKN020 BKN040
     FM152000 12008KT P6SM VCSH SCT025 BKN100=



000
FTUS42 KILM 151400 AAA
TAFFLO
TAF AMD
KFLO 151408Z 1514/1612 01005KT P6SM BKN009
     FM151500 05004KT P6SM BKN020 BKN040
     FM152000 14005KT P6SM VCSH SCT025 BKN100=



000
FTUS42 KILM 151400 AAA
TAFLBT
TAF AMD
KLBT 151408Z 1514/1612 03004KT P6SM OVC015
     FM151600 07004KT P6SM SCT020 BKN030
     FM152000 13005KT P6SM SCT025 BKN100=



000
FTUS42 KILM 151300 AAA
TAFCRE
TAF AMD
KCRE 151303Z 1513/1612 02005KT P6SM OVC029
      TEMPO 1513/1515 3SM RA BKN020
     FM151500 07006KT P6SM BKN020 OVC030
     FM152000 13006KT P6SM VCSH SCT025 BKN100
     FM160200 00000KT P6SM SCT007 BKN015=



000
FTUS42 KILM 151200 AAA
TAFMYR
TAF AMD
KMYR 151248Z 1513/1612 01006KT 3SM RA VCTS BKN009 BKN030CB
     FM151430 05007KT P6SM BKN020 BKN040
     FM152000 12008KT P6SM VCSH SCT025 BKN100=



000
FTUS42 KILM 151100 CCA
TAFCRE
TAF COR
KCRE 151150Z 1512/1612 02005KT P6SM OVC029
      TEMPO 1513/1515 5SM -RA BKN016
     FM151500 07006KT P6SM BKN020 OVC030
     FM152000 13006KT P6SM VCSH SCT025 BKN100
     FM160200 00000KT P6SM SCT007 BKN015=



000
FTUS42 KILM 151100 CCA
TAFMYR
TAF COR
KMYR 151124Z 1512/1612 01006KT P6SM VCSH SCT026 BKN035 OVC070
      TEMPO 1512/1514 6SM -RA BKN020
     FM151400 05007KT P6SM BKN020 BKN040
     FM152000 12008KT P6SM VCSH SCT025 BKN100=



000
FTUS42 KILM 151100
TAFLBT
TAF
KLBT 151120Z 1512/1612 03004KT P6SM OVC015
     FM151400 07004KT P6SM SCT020 BKN030
     FM152000 13005KT P6SM SCT025 BKN100=



000
FTUS42 KILM 151100
TAFILM
TAF
KILM 151120Z 1512/1612 05005KT P6SM OVC026
     FM151400 07005KT P6SM SCT020 BKN040
     FM152000 13006KT P6SM SCT025 BKN100=



000
FTUS42 KILM 151100
TAFMYR
TAF
KMYR 151120Z 1512/1612 01006KT P6SM SCT026 BKN035 OVC070
     FM151400 05007KT P6SM BKN020 BKN040
     FM152000 12008KT P6SM VCSH SCT025 BKN100=



000
FTUS42 KILM 151100
TAFCRE
TAF
KCRE 151120Z 1512/1612 02005KT P6SM OVC029
      TEMPO 1512/1514 BKN012
     FM151400 07006KT P6SM BKN020 OVC030
     FM152000 13006KT P6SM VCSH SCT025 BKN100
     FM160200 00000KT P6SM SCT007 BKN015=



000
FTUS42 KILM 151100
TAFFLO
TAF
KFLO 151120Z 1512/1612 01005KT P6SM BKN014 OVC026
     FM151500 05004KT P6SM BKN020 BKN040
     FM152000 14005KT P6SM VCSH SCT025 BKN100=



000
FTUS42 KILM 151000 AAB
TAFMYR
TAF AMD
KMYR 151000Z 1510/1606 03005KT P6SM BKN025 BKN040
     FM151400 05007KT P6SM BKN020 BKN040
     FM152000 12008KT P6SM VCSH SCT025 BKN100
      AMD LTD TO CLD VIS AND WIND TIL 151100=



000
FTUS42 KILM 150800 AAA
TAFFLO
TAF AMD
KFLO 150831Z 1509/1606 04004KT P6SM SCT012 BKN025
     FM151500 05004KT P6SM BKN020 BKN040
     FM152000 14005KT P6SM VCSH SCT025 BKN100=



000
FTUS42 KILM 150800 AAA
TAFMYR
TAF AMD
KMYR 150803Z 1508/1606 03005KT P6SM BKN025 BKN040
     FM150900 04005KT P6SM BKN015
     FM151400 05007KT P6SM BKN020 BKN040
     FM152000 12008KT P6SM VCSH SCT025 BKN100
      AMD LTD TO CLD VIS AND WIND TIL 151100=



000
FTUS42 KILM 150500 CCA
TAFLBT
TAF COR
KLBT 150544Z 1506/1606 06003KT P6SM OVC015
     FM150900 07004KT 3SM BR SCT007 OVC012
     FM151400 07004KT P6SM SCT020 BKN030
     FM152000 13005KT P6SM SCT025 BKN100=



000
FTUS42 KILM 150500 CCA
TAFFLO
TAF COR
KFLO 150543Z 1506/1606 03004KT P6SM SCT008 OVC015
     FM150800 04004KT 3SM BR BKN008 OVC012
     FM151500 05004KT P6SM BKN020 BKN040
     FM152000 14005KT P6SM VCSH SCT025 BKN100=



000
FTUS42 KILM 150500 RRA
TAFMYR
TAF
KMYR 150541Z 1506/1606 03005KT P6SM BKN015 BKN030
     FM150900 04005KT P6SM BKN009
     FM151400 05007KT P6SM BKN020 BKN040
     FM152000 12008KT P6SM VCSH SCT025 BKN100
      AMD LTD TO CLD VIS AND WIND TIL 151100=



000
FTUS42 KILM 150500 RRA
TAFCRE
TAF
KCRE 150541Z 1506/1606 03005KT P6SM SCT020 OVC035
      TEMPO 1510/1514 BKN012
     FM151400 07006KT P6SM BKN020 OVC030
     FM152000 13006KT P6SM VCSH SCT025 BKN100
     FM160200 00000KT P6SM SCT007 BKN015=



000
FTUS42 KILM 150500 RRA
TAFFLO
TAF
KFLO 150541Z 1506/1606 04003KT P6SM SCT008 OVC015
     FM150800 04002KT 5SM BR BKN008 OVC012
     FM151500 05004KT P6SM BKN020 BKN040
     FM152000 14005KT P6SM VCSH SCT025 BKN100=



000
FTUS42 KILM 150500 RRA
TAFILM
TAF
KILM 150541Z 1506/1606 02003KT P6SM SCT020 OVC035
     FM150900 03003KT P6SM SCT015 BKN025
     FM151400 07005KT P6SM SCT020 BKN040
     FM152000 13006KT P6SM SCT025 BKN100=



000
FTUS42 KILM 150500 RRA
TAFLBT
TAF
KLBT 150541Z 1506/1606 VRB02KT 4SM BR OVC015
     FM151500 07004KT P6SM SCT020 BKN050
     FM152000 13005KT P6SM SCT025 BKN100=



000
FTUS42 KILM 150200 AAA
TAFMYR
TAF AMD
KMYR 150203Z 1502/1524 02005KT P6SM SCT015 OVC035
      TEMPO 1504/1506 BKN015
     FM150600 03003KT 6SM BR BKN006 OVC015
     FM151500 06008KT P6SM BKN020 BKN040
      AMD LTD TO CLD VIS AND WIND 1504/1511=



000
FTUS42 KILM 150200 AAA
TAFCRE
TAF AMD
KCRE 150202Z 1502/1524 02005KT P6SM SCT015 OVC035
      TEMPO 1504/1506 BKN015
     FM150600 03003KT 6SM BR BKN006 OVC015
     FM151500 07006KT P6SM BKN020 BKN040=



000
FTUS42 KILM 142300
TAFFLO
TAF
KFLO 142321Z 1500/1524 06004KT P6SM OVC016
     FM150600 04003KT 5SM BR BKN006 OVC012
     FM151500 05004KT P6SM BKN020 BKN040=



000
FTUS42 KILM 142300
TAFLBT
TAF
KLBT 142321Z 1500/1524 05003KT P6SM OVC018
     FM150600 VRB02KT 5SM BR OVC012
     FM151500 08004KT P6SM SCT020 BKN050=



000
FTUS42 KILM 142300
TAFMYR
TAF
KMYR 142321Z 1500/1524 01004KT P6SM SCT015 OVC030
      TEMPO 1502/1506 BKN015
     FM150600 03003KT 6SM BR BKN006 OVC015
     FM151500 06008KT P6SM BKN020 BKN040
      AMD LTD TO CLD VIS AND WIND 1504/1511=



000
FTUS42 KILM 142300
TAFILM
TAF
KILM 142321Z 1500/1524 02005KT P6SM BKN020 OVC035
     FM150700 03003KT P6SM BKN015 OVC030
     FM151400 06006KT P6SM SCT020 BKN050=



000
FTUS42 KILM 142300
TAFCRE
TAF
KCRE 142321Z 1500/1524 02004KT P6SM SCT015 OVC030
      TEMPO 1502/1506 BKN015
     FM150600 03003KT 6SM BR BKN006 OVC015
     FM151500 07006KT P6SM BKN020 BKN040=



000
FTUS42 KILM 142100 AAA
TAFMYR
TAF AMD
KMYR 142159Z 1422/1518 01006KT P6SM SCT015 OVC035
     FM150000 05003KT P6SM OVC015
     FM150700 03003KT 4SM BR BKN006
     FM151500 02006KT P6SM BKN016=



000
FTUS42 KILM 142100 AAA
TAFCRE
TAF AMD
KCRE 142139Z 1422/1518 02006KT P6SM SCT015 OVC035
     FM150000 05003KT P6SM OVC015
     FM150700 03003KT 4SM BR BKN006
     FM151500 02006KT P6SM BKN016=



000
FTUS42 KILM 141700
TAFMYR
TAF
KMYR 141720Z 1418/1518 02008KT P6SM VCSH OVC007
     FM142300 05003KT P6SM SCT010 BKN100
     FM150700 03003KT 4SM BR BKN006
     FM151500 02006KT P6SM BKN016=



000
FTUS42 KILM 141700
TAFFLO
TAF
KFLO 141720Z 1418/1518 07009KT P6SM OVC017
     FM142300 06004KT P6SM SCT010 BKN100
     FM150500 06004KT 4SM -DZ BR BKN007
     FM150800 04003KT 2SM -DZ BR BKN003
     FM151500 03003KT 5SM BR BKN010=



000
FTUS42 KILM 141700
TAFCRE
TAF
KCRE 141720Z 1418/1518 05009KT P6SM OVC009
     FM142300 05003KT P6SM SCT010 BKN100
     FM150700 03003KT 4SM BR BKN006
     FM151500 02006KT P6SM BKN016=



000
FTUS42 KILM 141700
TAFLBT
TAF
KLBT 141720Z 1418/1518 06007KT P6SM VCSH OVC024
     FM142300 06003KT P6SM SCT015 BKN040
     FM150700 00000KT 3SM BR BKN007
     FM151400 02005KT P6SM BKN012=



000
FTUS42 KILM 141700
TAFILM
TAF
KILM 141720Z 1418/1518 36005KT P6SM OVC021
     FM142300 05003KT P6SM SCT010 BKN100
     FM150700 03003KT P6SM BKN012
     FM151400 04006KT P6SM BKN016=



000
FTUS42 KILM 141600 AAB
TAFCRE
TAF AMD
KCRE 141634Z 1417/1512 02006KT P6SM VCSH OVC008
     FM142300 07003KT P6SM SCT010 BKN100=



000
FTUS42 KILM 141600 AAA
TAFILM
TAF AMD
KILM 141634Z 1417/1512 04008KT P6SM VCSH BKN022 BKN110
     FM142300 05003KT P6SM SCT010 BKN100=



000
FTUS42 KILM 141600 AAC
TAFFLO
TAF AMD
KFLO 141634Z 1417/1512 05009KT P6SM VCSH OVC017
     FM142300 06004KT P6SM SCT010 BKN100=



000
FTUS42 KILM 141600 AAB
TAFMYR
TAF AMD
KMYR 141634Z 1417/1512 04008KT P6SM VCSH OVC007
     FM142300 07004KT P6SM SCT010 BKN100=



000
FTUS42 KILM 141400 AAA
TAFCRE
TAF AMD
KCRE 141405Z 1414/1512 VRB02KT 5SM BR VCSH BKN006
     FM141600 06007KT P6SM VCSH BKN015
     FM142300 07003KT P6SM SCT010 BKN100=



000
FTUS42 KILM 141400 AAA
TAFMYR
TAF AMD
KMYR 141402Z 1414/1512 02005KT P6SM BKN005
     FM141600 06009KT P6SM VCSH BKN015
     FM142300 07004KT P6SM SCT010 BKN100=



000
FTUS42 KILM 141400 AAB
TAFFLO
TAF AMD
KFLO 141402Z 1414/1512 04008KT P6SM BKN015
     FM141530 05007KT P6SM VCSH BKN020
     FM142300 06004KT P6SM SCT010 BKN100=



000
FTUS42 KILM 141300 AAA
TAFFLO
TAF AMD
KFLO 141321Z 1413/1512 04008KT P6SM OVC030
     FM141500 05007KT P6SM VCSH BKN020
     FM142300 06004KT P6SM SCT010 BKN100=



000
FTUS42 KILM 141100 CCA
TAFFLO
TAF COR
KFLO 141145Z 1412/1512 07005KT P6SM OVC016
     FM141500 05007KT P6SM VCSH BKN020
     FM142300 06004KT P6SM SCT010 BKN100=



000
FTUS42 KILM 141100 CCA
TAFCRE
TAF COR
KCRE 141144Z 1412/1512 VRB02KT 6SM -SHRA BKN005
     FM141430 03004KT P6SM SCT008 BKN012
     FM141600 06007KT P6SM VCSH BKN015
     FM142300 07003KT P6SM SCT010 BKN100=



000
FTUS42 KILM 141100
TAFCRE
TAF
KCRE 141120Z 1412/1512 VRB02KT 6SM -SHRA BKN005
     FM141330 03004KT P6SM SCT008 BKN012
     FM141600 06007KT P6SM VCSH BKN015
     FM142300 07003KT P6SM SCT010 BKN100=



000
FTUS42 KILM 141100
TAFMYR
TAF
KMYR 141120Z 1412/1512 02005KT P6SM BKN005
     FM141400 06009KT P6SM VCSH BKN015
     FM142300 07004KT P6SM SCT010 BKN100=



000
FTUS42 KILM 141100
TAFLBT
TAF
KLBT 141120Z 1412/1512 04008KT P6SM SCT008 BKN025
     FM141500 05007KT P6SM VCSH SCT010 BKN020
     FM142300 06003KT P6SM SCT015 BKN040=



000
FTUS42 KILM 141100
TAFFLO
TAF
KFLO 141120Z 1412/1512 07005KT P6SM OVC008
     FM141430 04008KT P6SM SCT008 BKN015
     FM141500 05007KT P6SM VCSH BKN020
     FM142300 06004KT P6SM SCT010 BKN100=



000
FTUS42 KILM 141100
TAFILM
TAF
KILM 141120Z 1412/1512 03006KT P6SM SCT008 OVC015
     FM141500 04007KT P6SM VCSH BKN015
     FM142300 05003KT P6SM SCT010 BKN100=



000
FTUS42 KILM 140900 AAA
TAFFLO
TAF AMD
KFLO 140905Z 1409/1506 07005KT P6SM OVC008
     FM141300 04008KT P6SM SCT008 BKN015
     FM141500 05007KT P6SM VCSH BKN020
     FM142300 06004KT P6SM SCT010 BKN100=



000
FTUS42 KILM 140900 AAB
TAFCRE
TAF AMD
KCRE 140904Z 1409/1506 VRB02KT 6SM -SHRA SCT025 OVC040
      TEMPO 1410/1412 BKN007
     FM141300 03004KT P6SM SCT008 BKN012
     FM141600 06007KT P6SM VCSH BKN015
     FM142300 07003KT P6SM SCT010 BKN100=



000
FTUS42 KILM 140700 AAA
TAFLBT
TAF AMD
KLBT 140736Z 1408/1506 03007KT P6SM BKN008
     FM140900 04008KT P6SM SCT008 BKN015
     FM141500 05007KT P6SM VCSH SCT010 BKN020
     FM142300 06003KT P6SM SCT015 BKN040=



000
FTUS42 KILM 140700 AAA
TAFCRE
TAF AMD
KCRE 140734Z 1408/1506 VRB02KT 4SM -SHRA BKN025 OVC040
      TEMPO 1408/1412 VRB15G25KT 1SM +SHRA BKN007 OVC015
     FM141300 03004KT P6SM SCT008 BKN012
     FM141600 06007KT P6SM VCSH BKN015
     FM142300 07003KT P6SM SCT010 BKN100=



000
FTUS42 KILM 140600 CCA
TAFCRE
TAF COR
KCRE 140630Z 1406/1506 VRB02KT 6SM BR BKN004 OVC020
     FM141300 03004KT P6SM SCT008 BKN012
     FM141600 06007KT P6SM VCSH BKN015
     FM142300 07003KT P6SM SCT010 BKN100=



000
FTUS42 KILM 140600 CCA
TAFILM
TAF COR
KILM 140629Z 1406/1506 08003KT 6SM BR BKN005 OVC010
     FM140900 03006KT P6SM BKN008 OVC015
     FM141500 04007KT P6SM VCSH BKN015
     FM142300 05003KT P6SM SCT010 BKN100=



000
FTUS42 KILM 140500
TAFMYR
TAF
KMYR 140520Z 1406/1506 VRB03KT P6SM BKN035 BKN120
     FM141000 02005KT P6SM SCT008 BKN012
     FM141500 06009KT P6SM VCSH BKN015
     FM142300 07004KT P6SM SCT010 BKN100
      AMD LTD TO CLD VIS AND WIND TIL 141100=



000
FTUS42 KILM 140500
TAFILM
TAF
KILM 140520Z 1406/1506 08003KT 6SM BR BKN025 BKN100
     FM140900 03006KT P6SM SCT008 BKN012
     FM141500 04007KT P6SM VCSH BKN015
     FM142300 05003KT P6SM SCT010 BKN100=



000
FTUS42 KILM 140500
TAFCRE
TAF
KCRE 140520Z 1406/1506 VRB02KT 6SM BR BKN025 BKN090
     FM141000 03004KT P6SM SCT008 BKN012
     FM141500 06007KT P6SM VCSH BKN015
     FM142300 07003KT P6SM SCT010 BKN100=



000
FTUS42 KILM 140500
TAFLBT
TAF
KLBT 140520Z 1406/1506 03003KT 4SM BR SCT015 BKN050
     FM140900 04006KT P6SM SCT008 BKN015
     FM141500 05007KT P6SM VCSH SCT010 BKN020
     FM142300 06003KT P6SM SCT015 BKN040=



000
FTUS42 KILM 140500
TAFFLO
TAF
KFLO 140520Z 1406/1506 07005KT P6SM VCTS SCT015CB BKN035
      TEMPO 1406/1410 3SM TSRA BR SCT010 BKN025CB OVC035
     FM141000 04008KT P6SM SCT008 BKN015
     FM141500 05007KT P6SM VCSH BKN020
     FM142300 06004KT P6SM SCT010 BKN100=



000
FTUS42 KILM 140400 AAB
TAFFLO
TAF AMD
KFLO 140434Z 1405/1424 VRB03KT P6SM SCT004 BKN030
      TEMPO 1405/1407 VRB10G20KT 1SM TSRA BR BKN004 OVC020CB
     FM140700 VRB02KT 5SM BR SCT015 BKN035
     FM141000 03007KT P6SM SCT008 BKN012
     FM141500 05007KT P6SM VCSH BKN015=



000
FTUS42 KILM 140300 AAA
TAFFLO
TAF AMD
KFLO 140325Z 1403/1424 VRB03KT 6SM -RA SCT004 BKN025
      TEMPO 1403/1407 VRB10G20KT 1SM TSRA BR BKN004 OVC020CB
     FM140700 VRB02KT 5SM BR SCT015 BKN035
     FM141000 03007KT P6SM SCT008 BKN012
     FM141500 05007KT P6SM VCSH BKN015=



000
FTUS42 KILM 140000 AAA
TAFCRE
TAF AMD
KCRE 140034Z 1401/1424 18003KT P6SM VCTS SCT020 BKN040CB
      TEMPO 1401/1402 3SM TSRA BR
     FM140200 VRB02KT P6SM -RA VCSH FEW020 BKN150
     FM140600 VRB02KT 6SM BR BKN035 BKN100
     FM141000 03004KT P6SM SCT008 BKN012
     FM141400 06007KT P6SM VCSH BKN015=



000
FTUS42 KILM 132300 CCA
TAFMYR
TAF COR
KMYR 132359Z 1400/1424 18005KT P6SM -RA VCSH FEW020 BKN150
     FM140600 VRB03KT 6SM BR BKN035 BKN100
     FM141000 02005KT P6SM SCT008 BKN012
     FM141400 05009KT P6SM VCSH BKN015
      AMD LTD TO CLD VIS AND WIND 1404/1411=



000
FTUS42 KILM 132300 CCA
TAFCRE
TAF COR
KCRE 132359Z 1400/1424 18003KT P6SM -RA VCSH FEW020 BKN150
     FM140600 VRB02KT 6SM BR BKN035 BKN100
     FM141000 03004KT P6SM SCT008 BKN012
     FM141400 06007KT P6SM VCSH BKN015=



000
FTUS42 KILM 132300 CCA
TAFILM
TAF COR
KILM 132358Z 1400/1424 36003KT P6SM -RA VCSH FEW020 BKN150
     FM140600 VRB02KT 6SM BR BKN035 BKN100
     FM140900 03005KT P6SM SCT008 BKN012
     FM141400 04007KT P6SM VCSH BKN015=



000
FTUS42 KILM 132300
TAFILM
TAF
KILM 132324Z 1400/1424 36003KT P6SM VCSH FEW020 BKN150
     FM140600 VRB02KT 6SM BR BKN035 BKN100
     FM140900 03005KT P6SM SCT008 BKN012
     FM141400 04007KT P6SM VCSH BKN015=



000
FTUS42 KILM 132300
TAFLBT
TAF
KLBT 132324Z 1400/1424 VRB03KT P6SM VCTS SCT050CB BKN100
     FM140400 02003KT 4SM BR SCT015 BKN035
     FM140900 04006KT P6SM SCT008 BKN012
     FM141500 05006KT P6SM VCSH BKN015=



000
FTUS42 KILM 132300
TAFFLO
TAF
KFLO 132324Z 1400/1424 VRB03KT P6SM VCTS SCT050CB BKN100
     FM140400 VRB02KT 5SM BR SCT015 BKN035
     FM141000 03007KT P6SM SCT008 BKN012
     FM141500 05007KT P6SM VCSH BKN015=



000
FTUS42 KILM 132300
TAFMYR
TAF
KMYR 132324Z 1400/1424 18005KT P6SM VCSH FEW020 BKN150
     FM140600 VRB03KT 6SM BR BKN035 BKN100
     FM141000 02005KT P6SM SCT008 BKN012
     FM141400 05009KT P6SM VCSH BKN015
      AMD LTD TO CLD VIS AND WIND 1404/1411=



000
FTUS42 KILM 132300
TAFCRE
TAF
KCRE 132324Z 1400/1424 18003KT P6SM VCSH FEW020 BKN150
     FM140600 VRB02KT 6SM BR BKN035 BKN100
     FM141000 03004KT P6SM SCT008 BKN012
     FM141400 06007KT P6SM VCSH BKN015=



000
FTUS42 KILM 132300 AAB
TAFFLO
TAF AMD
KFLO 132300Z 1323/1418 22005KT P6SM VCSH FEW020 BKN100
     FM140000 VRB05KT P6SM VCTS OVC050CB
     FM140600 00000KT 4SM BR BKN016
     FM140800 04003KT 2SM BR BKN004
     FM141530 05005KT P6SM BKN012=



000
FTUS42 KILM 132200 AAD
TAFLBT
TAF AMD
KLBT 132200Z 1322/1418 VRB05KT P6SM VCTS BKN035CB OVC050
      TEMPO 1322/1323 2SM TSRA BR
     FM140000 VRB03KT 6SM -SHRA VCTS BKN050CB
     FM140600 35004KT 4SM BR BKN005
     FM141400 05006KT P6SM BKN016=



000
FTUS42 KILM 132000 AAB
TAFMYR
TAF AMD
KMYR 132057Z 1321/1418 18010KT 6SM BR VCSH SCT020 BKN040
     FM140200 VRB05KT P6SM VCTS SCT035CB BKN080
     FM140600 34003KT 4SM BR BKN004
     FM141400 03007KT P6SM VCSH BKN012=



000
FTUS42 KILM 132000 AAA
TAFILM
TAF AMD
KILM 132056Z 1321/1418 VRB04KT P6SM VCTS SCT026CB BKN035 BKN050
     FM140200 VRB03KT P6SM VCTS SCT035CB BKN080
     FM140600 34003KT 4SM BR BKN004
     FM141400 03007KT P6SM VCSH BKN012=



000
FTUS42 KILM 132000 AAB
TAFCRE
TAF AMD
KCRE 132056Z 1321/1418 19007KT P6SM VCSH FEW019 BKN100 BKN120
     FM140200 VRB05KT P6SM VCTS SCT035CB BKN080
     FM140600 34003KT 4SM BR BKN004
     FM141400 03007KT P6SM VCSH BKN012=



000
FTUS42 KILM 132000 AAC
TAFLBT
TAF AMD
KLBT 132022Z 1320/1418 VRB10G15KT 4SM TSRA BR SCT015 BKN050CB
      TEMPO 1320/1322 1SM +TSRA BR
     FM132200 08003KT P6SM VCSH BKN024 BKN040 BKN070
     FM140000 VRB05KT 6SM -SHRA VCTS OVC050CB
     FM140600 35004KT 4SM BR BKN005
     FM141400 05006KT P6SM BKN016=



000
FTUS42 KILM 131900 AAB
TAFLBT
TAF AMD
KLBT 131941Z 1320/1418 VRB10G15KT 1SM +TSRA BR SCT015 BKN050CB
     FM132030 08003KT P6SM BKN024 BKN040 BKN070
      TEMPO 1321/1324 3SM TSRA BKN030CB
     FM140000 VRB05KT 6SM -SHRA VCTS OVC050CB
     FM140600 35004KT 4SM BR BKN005
     FM141400 05006KT P6SM BKN016=



000
FTUS42 KILM 131700 AAA
TAFILM
TAF AMD
KILM 131750Z 1318/1418 16008KT P6SM VCTS SCT026CB BKN035 BKN050
      TEMPO 1318/1322 3SM +TSRA BKN025CB
     FM140200 VRB05KT P6SM VCTS SCT035CB BKN080
     FM140600 34003KT 4SM BR BKN004
     FM141400 03007KT P6SM VCSH BKN012=



000
FTUS42 KILM 131700 AAA
TAFLBT
TAF AMD
KLBT 131749Z 1318/1418 08003KT P6SM BKN024 BKN040 BKN070
      TEMPO 1320/1324 3SM TSRA BKN030CB
     FM140000 VRB05KT 6SM -SHRA VCTS OVC050CB
     FM140600 35004KT 4SM BR BKN005
     FM141400 05006KT P6SM BKN016=



000
FTUS42 KILM 131700 AAA
TAFFLO
TAF AMD
KFLO 131749Z 1318/1418 22005KT P6SM VCSH BKN020 BKN030
      TEMPO 1320/1324 3SM TSRA BKN030CB
     FM140000 VRB05KT 6SM -SHRA VCTS OVC050CB
     FM140600 00000KT 4SM BR BKN016
     FM140800 04003KT 2SM BR BKN004
     FM141530 05005KT P6SM BKN012=



000
FTUS42 KILM 131700 AAA
TAFMYR
TAF AMD
KMYR 131749Z 1318/1418 16010KT 6SM BR VCSH SCT015 BKN035
      TEMPO 1318/1322 3SM +TSRA BKN025CB
     FM140200 VRB05KT P6SM VCTS SCT035CB BKN080
     FM140600 34003KT 4SM BR BKN004
     FM141400 03007KT P6SM VCSH BKN012=



000
FTUS42 KILM 131700 AAA
TAFCRE
TAF AMD
KCRE 131748Z 1318/1418 19007KT P6SM -RA VCSH FEW019 BKN100 BKN120
      TEMPO 1318/1322 3SM +TSRA BKN025CB
     FM140200 VRB05KT P6SM VCTS SCT035CB BKN080
     FM140600 34003KT 4SM BR BKN004
     FM141400 03007KT P6SM VCSH BKN012=



000
FTUS42 KILM 131700
TAFMYR
TAF
KMYR 131720Z 1318/1418 22006KT P6SM VCSH SCT025
      TEMPO 1318/1322 3SM +TSRA BKN025CB
     FM140200 VRB05KT P6SM VCTS SCT035CB BKN080
     FM140600 34003KT 4SM BR BKN004
     FM141400 03007KT P6SM VCSH BKN012=



000
FTUS42 KILM 131700
TAFCRE
TAF
KCRE 131720Z 1318/1418 19006KT P6SM VCSH SCT025
      TEMPO 1318/1322 3SM +TSRA BKN025CB
     FM140200 VRB05KT P6SM VCTS SCT035CB BKN080
     FM140600 34003KT 4SM BR BKN004
     FM141400 03007KT P6SM VCSH BKN012=



000
FTUS42 KILM 131700
TAFFLO
TAF
KFLO 131720Z 1318/1418 VRB05KT P6SM VCSH SCT015 OVC060
      TEMPO 1320/1324 3SM TSRA BKN030CB
     FM140000 VRB05KT 6SM -SHRA VCTS OVC050CB
     FM140600 00000KT 4SM BR BKN016
     FM140800 04003KT 2SM BR BKN004
     FM141530 05005KT P6SM BKN012=



000
FTUS42 KILM 131700
TAFLBT
TAF
KLBT 131720Z 1318/1418 VRB05KT P6SM SCT015 OVC060
      TEMPO 1320/1324 3SM TSRA BKN030CB
     FM140000 VRB05KT 6SM -SHRA VCTS OVC050CB
     FM140600 35004KT 4SM BR BKN005
     FM141400 05006KT P6SM BKN016=



000
FTUS42 KILM 131700
TAFILM
TAF
KILM 131720Z 1318/1418 16006KT P6SM VCSH SCT025
      TEMPO 1319/1322 3SM +TSRA BKN025CB
     FM140200 VRB05KT P6SM VCTS SCT035CB BKN080
     FM140600 34003KT 4SM BR BKN004
     FM141400 03007KT P6SM VCSH BKN012=



000
FTUS42 KILM 131300 AAB
TAFFLO
TAF AMD
KFLO 131358Z 1314/1412 00000KT 2SM BR VCSH OVC002
     FM131500 VRB03KT 6SM BR SCT010 OVC050
     FM131600 VRB05KT P6SM SCT015 OVC060
      TEMPO 1320/1324 3SM SHRA BKN030
     FM140000 VRB05KT 6SM -SHRA VCTS OVC050CB
     FM140600 00000KT 4SM BR BKN016=



000
FTUS42 KILM 131300 AAA
TAFILM
TAF AMD
KILM 131358Z 1314/1412 VRB05KT P6SM VCSH BKN003
     FM131500 16006KT P6SM VCSH SCT025
      TEMPO 1319/1322 3SM +TSRA BKN030CB
     FM140200 VRB05KT P6SM VCTS SCT035CB BKN080
     FM140600 34003KT 4SM BR BKN004=



    US Dept of Commerce
    National Oceanic and Atmospheric Administration
    National Weather Service
    1325 East West Highway
    Silver Spring, MD 20910
    Page Author: NWS Internet Services Team
Disclaimer
Information Quality
Credits
Glossary
Privacy Policy
Freedom of Information Act (FOIA)
About Us
Career Opportunities